»·PEaware :: N149CD KCMA-KLPC

N149CD :: KCMA-KLPC

FLIGHT INFORMATION

Flight Status: Arrived
Operator: Privately registered:
United States
More flights under this callsign
Pilot: Nathan E. (30132)
Aircraft: CESSNA 172 SKYHAWK
(C172)
More flights by this aircraft type
Origin: KCMA Camarillo
United States
Destination: KLPC Lompoc
United States
More flights between these airports :: More routes between these airports
Route: +V27 GVO
File this flight plan on PilotEdge
Remarks:
Altitude:
(Current/Filed)
8,000ft
Speed:
(Current/Filed)
110kts
Departed: 01-Sep-20 07:38 PM
Arrived: 01-Sep-20 08:22 PM
Distance/Time
Traveled:
73nm/0:43
Distance/Time
To Go:
Arrived

Flight Plot

Page will automatically refresh every two minutes.


Map Options




Map Legend


Flown Route
Filed Route
Departure Airport
Arrival Airport
Navaid (VOR, NDB)
Fix

Horizontal Profiles

Position Reports

Time Latitude Longitude Heading Altitude Ground
Speed
01-Sep-20 19:15 34.210350 -119.076468 0 79ft 0kts
01-Sep-20 19:16 34.210350 -119.076468 90 79ft 0kts
01-Sep-20 19:17 34.210350 -119.076468 90 79ft 0kts
01-Sep-20 19:18 34.210350 -119.076468 90 79ft 0kts
01-Sep-20 19:19 34.210350 -119.076468 90 79ft 0kts
01-Sep-20 19:20 34.210350 -119.076468 90 79ft 0kts
01-Sep-20 19:21 34.210350 -119.076468 90 79ft 0kts
01-Sep-20 19:22 34.210350 -119.076468 90 79ft 0kts
01-Sep-20 19:23 34.210350 -119.076468 90 79ft 0kts
01-Sep-20 19:24 34.210350 -119.076468 90 79ft 0kts
01-Sep-20 19:25 34.210350 -119.076468 90 79ft 0kts
01-Sep-20 19:26 34.210350 -119.076468 90 79ft 0kts
01-Sep-20 19:27 34.210350 -119.076468 90 79ft 0kts
01-Sep-20 19:28 34.210350 -119.076468 90 79ft 0kts
01-Sep-20 19:29 34.210350 -119.076468 90 79ft 0kts
01-Sep-20 19:30 34.210384 -119.076450 5 79ft 2kts
01-Sep-20 19:31 34.210894 -119.079266 270 78ft 19kts
01-Sep-20 19:32 34.211317 -119.084626 3 73ft 10kts
01-Sep-20 19:33 34.212225 -119.084183 311 75ft 0kts
01-Sep-20 19:35 34.212225 -119.084183 311 75ft 0kts
01-Sep-20 19:36 34.212225 -119.084183 311 75ft 0kts
01-Sep-20 19:37 34.212902 -119.084620 0 76ft 0kts
01-Sep-20 19:38 34.213741 -119.091444 269 107ft 76kts
01-Sep-20 19:39 34.217873 -119.117405 286 996ft 76kts
01-Sep-20 19:40 34.223939 -119.141958 286 1881ft 77kts
01-Sep-20 19:41 34.230088 -119.166818 286 2720ft 78kts
01-Sep-20 19:42 34.236423 -119.191877 290 3515ft 79kts
01-Sep-20 19:43 34.244526 -119.216614 291 4272ft 79kts
01-Sep-20 19:44 34.252742 -119.241561 291 4987ft 80kts
01-Sep-20 19:45 34.261095 -119.266896 291 5666ft 81kts
01-Sep-20 19:46 34.270430 -119.295145 291 6004ft 109kts
01-Sep-20 19:47 34.282069 -119.330276 291 6000ft 113kts
01-Sep-20 19:48 34.293790 -119.365638 291 5999ft 113kts
01-Sep-20 19:49 34.305473 -119.400927 291 5999ft 113kts
01-Sep-20 19:50 34.317173 -119.436307 291 5999ft 113kts
01-Sep-20 19:51 34.328845 -119.471643 291 5999ft 113kts
01-Sep-20 19:51 34.338555 -119.501069 291 6000ft 113kts
01-Sep-20 19:53 34.352152 -119.542322 291 6000ft 113kts
01-Sep-20 19:53 34.361820 -119.571689 291 6000ft 113kts
01-Sep-20 19:54 34.373455 -119.607066 291 6000ft 113kts
01-Sep-20 19:56 34.387004 -119.648316 291 6000ft 113kts
01-Sep-20 19:56 34.396678 -119.677804 291 5999ft 113kts
01-Sep-20 19:57 34.408280 -119.713205 291 6000ft 113kts
01-Sep-20 19:58 34.419896 -119.748689 291 6000ft 113kts
01-Sep-20 19:59 34.431388 -119.783837 291 6000ft 113kts
01-Sep-20 20:00 34.442938 -119.819199 291 6000ft 113kts
01-Sep-20 20:01 34.454507 -119.854662 291 6000ft 113kts
01-Sep-20 20:02 34.466047 -119.890078 291 6000ft 113kts
01-Sep-20 20:03 34.477613 -119.925642 291 5999ft 113kts
01-Sep-20 20:04 34.489128 -119.961057 291 5999ft 113kts
01-Sep-20 20:05 34.500671 -119.996588 291 6000ft 113kts
01-Sep-20 20:06 34.512181 -120.032059 291 5999ft 113kts
01-Sep-20 20:07 34.523714 -120.067643 291 6000ft 113kts
01-Sep-20 20:08 34.540953 -120.099233 320 5776ft 119kts
01-Sep-20 20:09 34.567166 -120.123921 322 4940ft 117kts
01-Sep-20 20:10 34.593011 -120.147702 322 4419ft 115kts
01-Sep-20 20:11 34.618459 -120.170873 323 4170ft 116kts
01-Sep-20 20:12 34.644586 -120.194295 323 3670ft 116kts
01-Sep-20 20:13 34.661102 -120.225504 276 3165ft 114kts
01-Sep-20 20:14 34.662568 -120.262441 271 3000ft 107kts
01-Sep-20 20:15 34.663150 -120.297981 271 3001ft 106kts
01-Sep-20 20:16 34.663745 -120.335776 271 2567ft 115kts
01-Sep-20 20:17 34.664315 -120.374250 271 1817ft 111kts
01-Sep-20 20:18 34.664821 -120.409852 271 1123ft 92kts
01-Sep-20 20:19 34.665191 -120.436996 271 574ft 69kts
01-Sep-20 20:20 34.665511 -120.459178 271 131ft 64kts
01-Sep-20 20:21 34.665703 -120.472747 289 82ft 6kts
01-Sep-20 20:22 34.666349 -120.470071 91 81ft 22kts
01-Sep-20 20:23 34.666684 -120.463568 23 80ft 5kts
01-Sep-20 20:24 34.666770 -120.463340 92 80ft 0kts

Navigation Log

Ident Type
Flight plan parsing failed, navigation log unavailable